sensor_id;sensor_type;location;lat;lon;timestamp;pressure;altitude;pressure_sealevel;temperature;humidity
10093;BME280;5085;48.092;11.484;2022-12-04T00:01:14;94732.22;;;0.45;100.00
10093;BME280;5085;48.092;11.484;2022-12-04T00:03:41;94730.97;;;0.47;100.00
10093;BME280;5085;48.092;11.484;2022-12-04T00:06:13;94725.81;;;0.53;100.00
10093;BME280;5085;48.092;11.484;2022-12-04T00:08:40;94724.78;;;0.54;100.00
10093;BME280;5085;48.092;11.484;2022-12-04T00:11:08;94728.25;;;0.54;100.00
10093;BME280;5085;48.092;11.484;2022-12-04T00:13:35;94735.38;;;0.54;100.00
10093;BME280;5085;48.092;11.484;2022-12-04T00:16:06;94731.50;;;0.56;100.00
10093;BME280;5085;48.092;11.484;2022-12-04T00:18:32;94737.16;;;0.60;100.00
10093;BME280;5085;48.092;11.484;2022-12-04T00:20:58;94735.31;;;0.60;100.00
10093;BME280;5085;48.092;11.484;2022-12-04T00:23:24;94732.88;;;0.59;100.00
10093;BME280;5085;48.092;11.484;2022-12-04T00:25:50;94729.84;;;0.55;100.00
10093;BME280;5085;48.092;11.484;2022-12-04T00:28:18;94725.59;;;0.54;100.00
10093;BME280;5085;48.092;11.484;2022-12-04T00:30:44;94725.38;;;0.56;100.00
10093;BME280;5085;48.092;11.484;2022-12-04T00:33:12;94725.97;;;0.58;100.00
10093;BME280;5085;48.092;11.484;2022-12-04T00:35:38;94709.84;;;0.59;100.00
10093;BME280;5085;48.092;11.484;2022-12-04T00:38:04;94721.28;;;0.60;100.00
10093;BME280;5085;48.092;11.484;2022-12-04T00:40:30;94725.97;;;0.58;100.00
10093;BME280;5085;48.092;11.484;2022-12-04T00:42:56;94735.63;;;0.52;100.00
10093;BME280;5085;48.092;11.484;2022-12-04T00:45:22;94740.91;;;0.52;100.00
10093;BME280;5085;48.092;11.484;2022-12-04T00:47:48;94747.00;;;0.53;100.00
10093;BME280;5085;48.092;11.484;2022-12-04T00:50:14;94734.13;;;0.56;100.00
10093;BME280;5085;48.092;11.484;2022-12-04T00:52:40;94721.47;;;0.58;100.00
10093;BME280;5085;48.092;11.484;2022-12-04T00:55:07;94727.56;;;0.59;100.00
10093;BME280;5085;48.092;11.484;2022-12-04T00:57:33;94725.72;;;0.59;100.00
10093;BME280;5085;48.092;11.484;2022-12-04T00:59:59;94723.09;;;0.59;100.00
10093;BME280;5085;48.092;11.484;2022-12-04T01:02:25;94718.63;;;0.60;100.00
10093;BME280;5085;48.092;11.484;2022-12-04T01:04:51;94714.94;;;0.61;100.00
10093;BME280;5085;48.092;11.484;2022-12-04T01:07:17;94721.91;;;0.55;100.00
10093;BME280;5085;48.092;11.484;2022-12-04T01:09:43;94721.34;;;0.53;100.00
10093;BME280;5085;48.092;11.484;2022-12-04T01:12:09;94735.38;;;0.54;100.00
10093;BME280;5085;48.092;11.484;2022-12-04T01:14:35;94716.84;;;0.54;100.00
10093;BME280;5085;48.092;11.484;2022-12-04T01:17:01;94729.66;;;0.57;100.00
10093;BME280;5085;48.092;11.484;2022-12-04T01:19:27;94733.78;;;0.53;100.00
10093;BME280;5085;48.092;11.484;2022-12-04T01:21:53;94730.69;;;0.56;100.00
10093;BME280;5085;48.092;11.484;2022-12-04T01:24:19;94733.34;;;0.56;100.00
10093;BME280;5085;48.092;11.484;2022-12-04T01:26:46;94744.13;;;0.54;100.00
10093;BME280;5085;48.092;11.484;2022-12-04T01:29:12;94735.38;;;0.54;100.00
10093;BME280;5085;48.092;11.484;2022-12-04T01:31:38;94737.00;;;0.55;100.00
10093;BME280;5085;48.092;11.484;2022-12-04T01:34:04;94738.84;;;0.54;100.00
10093;BME280;5085;48.092;11.484;2022-12-04T01:36:30;94732.72;;;0.54;100.00
10093;BME280;5085;48.092;11.484;2022-12-04T01:38:56;94741.72;;;0.53;100.00
10093;BME280;5085;48.092;11.484;2022-12-04T01:41:25;94743.31;;;0.54;100.00
10093;BME280;5085;48.092;11.484;2022-12-04T01:44:13;94744.50;;;0.58;100.00
10093;BME280;5085;48.092;11.484;2022-12-04T01:46:40;94749.38;;;0.61;100.00
10093;BME280;5085;48.092;11.484;2022-12-04T01:49:13;94728.84;;;0.56;100.00
10093;BME280;5085;48.092;11.484;2022-12-04T01:51:44;94722.00;;;0.48;100.00
10093;BME280;5085;48.092;11.484;2022-12-04T01:54:26;94708.16;;;0.46;100.00
10093;BME280;5085;48.092;11.484;2022-12-04T01:57:04;94709.00;;;0.47;100.00
10093;BME280;5085;48.092;11.484;2022-12-04T01:59:34;94707.16;;;0.47;100.00
10093;BME280;5085;48.092;11.484;2022-12-04T02:02:07;94712.22;;;0.49;100.00
10093;BME280;5085;48.092;11.484;2022-12-04T02:04:35;94706.13;;;0.48;100.00
10093;BME280;5085;48.092;11.484;2022-12-04T02:07:01;94719.72;;;0.52;100.00
10093;BME280;5085;48.092;11.484;2022-12-04T02:09:29;94718.44;;;0.55;100.00
10093;BME280;5085;48.092;11.484;2022-12-04T02:12:06;94712.94;;;0.56;100.00
10093;BME280;5085;48.092;11.484;2022-12-04T02:22:29;94709.56;;;0.49;100.00
10093;BME280;5085;48.092;11.484;2022-12-04T02:28:04;94694.09;;;0.46;100.00
10093;BME280;5085;48.092;11.484;2022-12-04T02:30:36;94691.69;;;0.44;100.00
10093;BME280;5085;48.092;11.484;2022-12-04T02:33:16;94682.50;;;0.47;100.00
10093;BME280;5085;48.092;11.484;2022-12-04T02:36:05;94680.06;;;0.45;100.00
10093;BME280;5085;48.092;11.484;2022-12-04T02:41:26;94672.56;;;0.42;100.00
10093;BME280;5085;48.092;11.484;2022-12-04T02:43:57;94667.25;;;0.42;100.00
10093;BME280;5085;48.092;11.484;2022-12-04T02:46:33;94673.59;;;0.41;100.00
10093;BME280;5085;48.092;11.484;2022-12-04T02:49:02;94666.13;;;0.38;100.00
10093;BME280;5085;48.092;11.484;2022-12-04T02:51:32;94668.31;;;0.41;100.00
10093;BME280;5085;48.092;11.484;2022-12-04T02:54:06;94667.88;;;0.44;100.00
10093;BME280;5085;48.092;11.484;2022-12-04T02:56:38;94674.78;;;0.45;100.00
10093;BME280;5085;48.092;11.484;2022-12-04T02:59:16;94662.81;;;0.43;100.00
10093;BME280;5085;48.092;11.484;2022-12-04T03:01:48;94664.03;;;0.40;100.00
10093;BME280;5085;48.092;11.484;2022-12-04T03:04:19;94655.53;;;0.38;100.00
10093;BME280;5085;48.092;11.484;2022-12-04T03:06:56;94670.00;;;0.36;100.00
10093;BME280;5085;48.092;11.484;2022-12-04T03:09:27;94657.63;;;0.30;100.00
10093;BME280;5085;48.092;11.484;2022-12-04T03:11:58;94665.81;;;0.28;100.00
10093;BME280;5085;48.092;11.484;2022-12-04T03:14:34;94669.50;;;0.27;100.00
10093;BME280;5085;48.092;11.484;2022-12-04T03:17:14;94668.47;;;0.28;100.00
10093;BME280;5085;48.092;11.484;2022-12-04T03:19:47;94668.22;;;0.30;100.00
10093;BME280;5085;48.092;11.484;2022-12-04T03:22:17;94664.94;;;0.34;100.00
10093;BME280;5085;48.092;11.484;2022-12-04T03:24:49;94657.81;;;0.35;100.00
10093;BME280;5085;48.092;11.484;2022-12-04T03:30:01;94659.47;;;0.29;100.00
10093;BME280;5085;48.092;11.484;2022-12-04T03:32:42;94667.22;;;0.31;100.00
10093;BME280;5085;48.092;11.484;2022-12-04T03:35:14;94664.94;;;0.34;100.00
10093;BME280;5085;48.092;11.484;2022-12-04T03:40:56;94666.56;;;0.35;100.00
10093;BME280;5085;48.092;11.484;2022-12-04T03:46:13;94670.38;;;0.39;100.00
10093;BME280;5085;48.092;11.484;2022-12-04T03:49:17;94665.66;;;0.41;100.00
10093;BME280;5085;48.092;11.484;2022-12-04T03:51:54;94662.34;;;0.46;100.00
10093;BME280;5085;48.092;11.484;2022-12-04T03:54:29;94661.16;;;0.42;100.00
10093;BME280;5085;48.092;11.484;2022-12-04T03:57:07;94644.69;;;0.40;100.00
10093;BME280;5085;48.092;11.484;2022-12-04T03:59:39;94636.81;;;0.33;100.00
10093;BME280;5085;48.092;11.484;2022-12-04T04:02:11;94649.06;;;0.34;100.00
10093;BME280;5085;48.092;11.484;2022-12-04T04:04:39;94650.88;;;0.34;100.00
10093;BME280;5085;48.092;11.484;2022-12-04T04:07:14;94650.44;;;0.37;100.00
10093;BME280;5085;48.092;11.484;2022-12-04T04:09:45;94658.19;;;0.38;100.00
10093;BME280;5085;48.092;11.484;2022-12-04T04:12:19;94640.50;;;0.32;100.00
10093;BME280;5085;48.092;11.484;2022-12-04T04:14:52;94643.75;;;0.34;100.00
10093;BME280;5085;48.092;11.484;2022-12-04T04:17:41;94638.66;;;0.33;100.00
10093;BME280;5085;48.092;11.484;2022-12-04T04:20:33;94645.56;;;0.34;100.00
10093;BME280;5085;48.092;11.484;2022-12-04T04:23:20;94646.84;;;0.31;100.00
10093;BME280;5085;48.092;11.484;2022-12-04T04:26:05;94646.03;;;0.31;100.00
10093;BME280;5085;48.092;11.484;2022-12-04T04:28:34;94653.31;;;0.35;100.00
10093;BME280;5085;48.092;11.484;2022-12-04T04:31:11;94648.38;;;0.39;100.00
10093;BME280;5085;48.092;11.484;2022-12-04T04:33:46;94652.66;;;0.40;100.00
10093;BME280;5085;48.092;11.484;2022-12-04T04:36:30;94645.75;;;0.39;100.00
10093;BME280;5085;48.092;11.484;2022-12-04T04:41:49;94645.63;;;0.45;100.00
10093;BME280;5085;48.092;11.484;2022-12-04T04:47:20;94649.59;;;0.55;100.00
10093;BME280;5085;48.092;11.484;2022-12-04T04:49:50;94640.63;;;0.56;100.00
10093;BME280;5085;48.092;11.484;2022-12-04T04:52:20;94639.00;;;0.55;100.00
10093;BME280;5085;48.092;11.484;2022-12-04T04:54:47;94642.69;;;0.54;100.00
10093;BME280;5085;48.092;11.484;2022-12-04T04:57:24;94632.88;;;0.54;100.00
10093;BME280;5085;48.092;11.484;2022-12-04T04:59:50;94638.44;;;0.53;100.00
10093;BME280;5085;48.092;11.484;2022-12-04T05:02:16;94648.78;;;0.54;100.00
10093;BME280;5085;48.092;11.484;2022-12-04T05:04:42;94660.19;;;0.55;100.00
10093;BME280;5085;48.092;11.484;2022-12-04T05:07:08;94651.22;;;0.56;100.00
10093;BME280;5085;48.092;11.484;2022-12-04T05:09:34;94647.31;;;0.58;100.00
10093;BME280;5085;48.092;11.484;2022-12-04T05:12:00;94646.50;;;0.58;100.00
10093;BME280;5085;48.092;11.484;2022-12-04T05:14:26;94649.81;;;0.53;100.00
10093;BME280;5085;48.092;11.484;2022-12-04T05:16:52;94645.34;;;0.54;100.00
10093;BME280;5085;48.092;11.484;2022-12-04T05:19:18;94637.63;;;0.52;100.00
10093;BME280;5085;48.092;11.484;2022-12-04T05:22:03;94640.25;;;0.52;100.00
10093;BME280;5085;48.092;11.484;2022-12-04T05:24:29;94643.97;;;0.51;100.00
10093;BME280;5085;48.092;11.484;2022-12-04T05:26:55;94626.78;;;0.54;100.00
10093;BME280;5085;48.092;11.484;2022-12-04T05:29:21;94640.84;;;0.54;100.00
10093;BME280;5085;48.092;11.484;2022-12-04T05:31:47;94635.78;;;0.53;100.00
10093;BME280;5085;48.092;11.484;2022-12-04T05:34:13;94633.69;;;0.55;100.00
10093;BME280;5085;48.092;11.484;2022-12-04T05:36:39;94642.25;;;0.57;100.00
10093;BME280;5085;48.092;11.484;2022-12-04T05:39:05;94652.84;;;0.57;100.00
10093;BME280;5085;48.092;11.484;2022-12-04T05:41:31;94657.09;;;0.58;100.00
10093;BME280;5085;48.092;11.484;2022-12-04T05:43:57;94647.31;;;0.58;100.00
10093;BME280;5085;48.092;11.484;2022-12-04T05:46:23;94646.13;;;0.54;100.00
10093;BME280;5085;48.092;11.484;2022-12-04T05:48:49;94642.25;;;0.57;100.00
10093;BME280;5085;48.092;11.484;2022-12-04T05:51:15;94635.53;;;0.54;100.00
10093;BME280;5085;48.092;11.484;2022-12-04T05:53:41;94638.88;;;0.49;100.00
10093;BME280;5085;48.092;11.484;2022-12-04T05:56:07;94642.31;;;0.50;100.00
10093;BME280;5085;48.092;11.484;2022-12-04T05:58:35;94638.66;;;0.51;100.00
10093;BME280;5085;48.092;11.484;2022-12-04T06:01:16;94634.16;;;0.52;100.00
10093;BME280;5085;48.092;11.484;2022-12-04T06:03:43;94632.31;;;0.52;100.00
10093;BME280;5085;48.092;11.484;2022-12-04T06:06:23;94637.16;;;0.55;100.00
10093;BME280;5085;48.092;11.484;2022-12-04T06:08:50;94627.97;;;0.58;100.00
10093;BME280;5085;48.092;11.484;2022-12-04T06:11:20;94617.38;;;0.58;100.00
10093;BME280;5085;48.092;11.484;2022-12-04T06:13:46;94605.72;;;0.59;100.00
10093;BME280;5085;48.092;11.484;2022-12-04T06:16:14;94608.00;;;0.55;100.00
10093;BME280;5085;48.092;11.484;2022-12-04T06:18:41;94617.91;;;0.48;100.00
10093;BME280;5085;48.092;11.484;2022-12-04T06:21:07;94627.69;;;0.47;100.00
10093;BME280;5085;48.092;11.484;2022-12-04T06:23:34;94628.88;;;0.52;100.00
10093;BME280;5085;48.092;11.484;2022-12-04T06:26:02;94651.22;;;0.56;100.00
10093;BME280;5085;48.092;11.484;2022-12-04T06:28:29;94650.75;;;0.59;100.00
10093;BME280;5085;48.092;11.484;2022-12-04T06:30:54;94653.56;;;0.64;100.00
10093;BME280;5085;48.092;11.484;2022-12-04T06:33:20;94658.41;;;0.67;100.00
10093;BME280;5085;48.092;11.484;2022-12-04T06:35:46;94644.09;;;0.68;100.00
10093;BME280;5085;48.092;11.484;2022-12-04T06:38:12;94648.16;;;0.70;100.00
10093;BME280;5085;48.092;11.484;2022-12-04T06:40:39;94638.38;;;0.71;100.00
10093;BME280;5085;48.092;11.484;2022-12-04T06:43:05;94642.63;;;0.72;100.00
10093;BME280;5085;48.092;11.484;2022-12-04T06:45:31;94641.63;;;0.73;100.00
10093;BME280;5085;48.092;11.484;2022-12-04T06:47:57;94646.09;;;0.72;100.00
10093;BME280;5085;48.092;11.484;2022-12-04T06:50:23;94643.66;;;0.71;100.00
10093;BME280;5085;48.092;11.484;2022-12-04T06:52:49;94631.22;;;0.71;100.00
10093;BME280;5085;48.092;11.484;2022-12-04T06:55:15;94625.91;;;0.71;100.00
10093;BME280;5085;48.092;11.484;2022-12-04T06:57:41;94622.47;;;0.71;100.00
10093;BME280;5085;48.092;11.484;2022-12-04T07:00:07;94632.03;;;0.72;100.00
10093;BME280;5085;48.092;11.484;2022-12-04T07:02:33;94625.56;;;0.68;100.00
10093;BME280;5085;48.092;11.484;2022-12-04T07:04:59;94633.97;;;0.65;100.00
10093;BME280;5085;48.092;11.484;2022-12-04T07:07:25;94646.63;;;0.63;100.00
10093;BME280;5085;48.092;11.484;2022-12-04T07:09:51;94664.16;;;0.64;100.00
10093;BME280;5085;48.092;11.484;2022-12-04T07:12:17;94648.03;;;0.65;100.00
10093;BME280;5085;48.092;11.484;2022-12-04T07:14:43;94632.38;;;0.64;100.00
10093;BME280;5085;48.092;11.484;2022-12-04T07:17:09;94648.25;;;0.64;100.00
10093;BME280;5085;48.092;11.484;2022-12-04T07:19:36;94640.09;;;0.65;100.00
10093;BME280;5085;48.092;11.484;2022-12-04T07:22:02;94639.72;;;0.62;100.00
10093;BME280;5085;48.092;11.484;2022-12-04T07:24:28;94631.84;;;0.55;100.00
10093;BME280;5085;48.092;11.484;2022-12-04T07:26:54;94654.44;;;0.58;100.00
10093;BME280;5085;48.092;11.484;2022-12-04T07:29:20;94651.94;;;0.63;100.00
10093;BME280;5085;48.092;11.484;2022-12-04T07:31:46;94648.84;;;0.66;100.00
10093;BME280;5085;48.092;11.484;2022-12-04T07:34:12;94648.59;;;0.67;100.00
10093;BME280;5085;48.092;11.484;2022-12-04T07:36:38;94648.41;;;0.69;100.00
10093;BME280;5085;48.092;11.484;2022-12-04T07:39:05;94650.44;;;0.67;100.00
10093;BME280;5085;48.092;11.484;2022-12-04T07:41:31;94637.19;;;0.67;100.00
10093;BME280;5085;48.092;11.484;2022-12-04T07:43:59;94639.16;;;0.71;100.00
10093;BME280;5085;48.092;11.484;2022-12-04T07:46:26;94660.84;;;0.68;100.00
10093;BME280;5085;48.092;11.484;2022-12-04T07:48:57;94673.03;;;0.69;100.00
10093;BME280;5085;48.092;11.484;2022-12-04T07:51:25;94665.53;;;0.66;100.00
10093;BME280;5085;48.092;11.484;2022-12-04T07:53:53;94653.09;;;0.67;100.00
10093;BME280;5085;48.092;11.484;2022-12-04T07:56:20;94669.22;;;0.65;100.00
10093;BME280;5085;48.092;11.484;2022-12-04T07:58:46;94664.97;;;0.64;100.00
10093;BME280;5085;48.092;11.484;2022-12-04T08:01:15;94667.38;;;0.66;100.00
10093;BME280;5085;48.092;11.484;2022-12-04T08:03:43;94651.84;;;0.69;100.00
10093;BME280;5085;48.092;11.484;2022-12-04T08:06:09;94657.28;;;0.74;100.00
10093;BME280;5085;48.092;11.484;2022-12-04T08:08:36;94650.94;;;0.75;100.00
10093;BME280;5085;48.092;11.484;2022-12-04T08:11:06;94653.94;;;0.79;100.00
10093;BME280;5085;48.092;11.484;2022-12-04T08:13:32;94654.06;;;0.84;100.00
10093;BME280;5085;48.092;11.484;2022-12-04T08:16:03;94658.94;;;0.87;100.00
10093;BME280;5085;48.092;11.484;2022-12-04T08:18:30;94653.75;;;0.92;100.00
10093;BME280;5085;48.092;11.484;2022-12-04T08:21:07;94663.31;;;0.93;100.00
10093;BME280;5085;48.092;11.484;2022-12-04T08:23:33;94666.19;;;0.92;100.00
10093;BME280;5085;48.092;11.484;2022-12-04T08:26:00;94655.84;;;0.90;100.00
10093;BME280;5085;48.092;11.484;2022-12-04T08:28:27;94642.78;;;0.89;100.00
10093;BME280;5085;48.092;11.484;2022-12-04T08:30:53;94643.63;;;0.89;100.00
10093;BME280;5085;48.092;11.484;2022-12-04T08:33:19;94646.47;;;0.88;100.00
10093;BME280;5085;48.092;11.484;2022-12-04T08:35:45;94648.69;;;0.91;100.00
10093;BME280;5085;48.092;11.484;2022-12-04T08:38:11;94662.50;;;0.93;100.00
10093;BME280;5085;48.092;11.484;2022-12-04T08:40:37;94668.97;;;0.97;100.00
10093;BME280;5085;48.092;11.484;2022-12-04T08:43:03;94677.09;;;1.02;100.00
10093;BME280;5085;48.092;11.484;2022-12-04T08:45:29;94666.34;;;1.09;100.00
10093;BME280;5085;48.092;11.484;2022-12-04T08:47:55;94665.13;;;1.11;100.00
10093;BME280;5085;48.092;11.484;2022-12-04T08:50:21;94663.63;;;1.15;100.00
10093;BME280;5085;48.092;11.484;2022-12-04T08:52:47;94669.72;;;1.16;100.00
10093;BME280;5085;48.092;11.484;2022-12-04T08:55:13;94663.63;;;1.15;100.00
10093;BME280;5085;48.092;11.484;2022-12-04T08:57:39;94656.22;;;1.17;100.00
10093;BME280;5085;48.092;11.484;2022-12-04T09:00:06;94665.13;;;1.23;100.00
10093;BME280;5085;48.092;11.484;2022-12-04T09:02:32;94663.19;;;1.30;100.00
10093;BME280;5085;48.092;11.484;2022-12-04T09:04:58;94652.47;;;1.37;100.00
10093;BME280;5085;48.092;11.484;2022-12-04T09:07:24;94643.34;;;1.44;100.00
10093;BME280;5085;48.092;11.484;2022-12-04T09:09:50;94636.34;;;1.50;100.00
10093;BME280;5085;48.092;11.484;2022-12-04T09:12:16;94650.50;;;1.56;100.00
10093;BME280;5085;48.092;11.484;2022-12-04T09:14:42;94664.13;;;1.59;100.00
10093;BME280;5085;48.092;11.484;2022-12-04T09:17:08;94668.38;;;1.60;100.00
10093;BME280;5085;48.092;11.484;2022-12-04T09:19:34;94665.63;;;1.67;100.00
10093;BME280;5085;48.092;11.484;2022-12-04T09:22:01;94671.16;;;1.65;100.00
10093;BME280;5085;48.092;11.484;2022-12-04T09:24:31;94689.28;;;1.68;100.00
10093;BME280;5085;48.092;11.484;2022-12-04T09:26:57;94692.28;;;1.72;100.00
10093;BME280;5085;48.092;11.484;2022-12-04T09:29:23;94666.22;;;1.81;100.00
10093;BME280;5085;48.092;11.484;2022-12-04T09:31:50;94652.34;;;1.90;100.00
10093;BME280;5085;48.092;11.484;2022-12-04T09:34:16;94654.66;;;1.98;100.00
10093;BME280;5085;48.092;11.484;2022-12-04T09:36:42;94667.00;;;2.05;100.00
10093;BME280;5085;48.092;11.484;2022-12-04T09:39:09;94642.06;;;2.06;100.00
10093;BME280;5085;48.092;11.484;2022-12-04T09:46:37;94611.31;;;2.21;100.00
10093;BME280;5085;48.092;11.484;2022-12-04T09:49:10;94636.59;;;2.24;100.00
10093;BME280;5085;48.092;11.484;2022-12-04T09:51:39;94630.22;;;2.25;100.00
10093;BME280;5085;48.092;11.484;2022-12-04T09:54:19;94640.28;;;2.23;100.00
10093;BME280;5085;48.092;11.484;2022-12-04T09:56:52;94665.25;;;2.22;100.00
10093;BME280;5085;48.092;11.484;2022-12-04T09:59:27;94646.66;;;2.22;100.00
10093;BME280;5085;48.092;11.484;2022-12-04T10:04:32;94622.41;;;2.18;100.00
10093;BME280;5085;48.092;11.484;2022-12-04T10:07:07;94616.84;;;2.20;100.00
10093;BME280;5085;48.092;11.484;2022-12-04T10:09:44;94612.94;;;2.22;100.00
10093;BME280;5085;48.092;11.484;2022-12-04T10:15:20;94606.38;;;2.42;100.00
10093;BME280;5085;48.092;11.484;2022-12-04T10:18:10;94588.13;;;2.45;100.00
10093;BME280;5085;48.092;11.484;2022-12-04T10:26:13;94598.72;;;2.57;100.00
10093;BME280;5085;48.092;11.484;2022-12-04T10:28:56;94583.66;;;2.63;100.00
10093;BME280;5085;48.092;11.484;2022-12-04T10:31:25;94575.69;;;2.63;100.00
10093;BME280;5085;48.092;11.484;2022-12-04T10:33:54;94592.13;;;2.60;100.00
10093;BME280;5085;48.092;11.484;2022-12-04T10:36:27;94586.81;;;2.60;100.00
10093;BME280;5085;48.092;11.484;2022-12-04T10:38:56;94567.16;;;2.61;100.00
10093;BME280;5085;48.092;11.484;2022-12-04T10:41:30;94574.66;;;2.64;100.00
10093;BME280;5085;48.092;11.484;2022-12-04T10:43:59;94578.22;;;2.69;100.00
10093;BME280;5085;48.092;11.484;2022-12-04T10:46:28;94561.41;;;2.97;100.00
10093;BME280;5085;48.092;11.484;2022-12-04T10:49:01;94554.78;;;3.17;100.00
10093;BME280;5085;48.092;11.484;2022-12-04T10:51:33;94553.97;;;3.16;100.00
10093;BME280;5085;48.092;11.484;2022-12-04T10:54:00;94540.34;;;3.13;100.00
10093;BME280;5085;48.092;11.484;2022-12-04T10:56:26;94533.25;;;3.01;100.00
10093;BME280;5085;48.092;11.484;2022-12-04T10:59:00;94528.38;;;2.93;100.00
10093;BME280;5085;48.092;11.484;2022-12-04T11:01:28;94539.16;;;2.87;100.00
10093;BME280;5085;48.092;11.484;2022-12-04T11:04:07;94539.88;;;2.82;100.00
10093;BME280;5085;48.092;11.484;2022-12-04T11:06:34;94537.22;;;2.82;100.00
10093;BME280;5085;48.092;11.484;2022-12-04T11:09:01;94538.75;;;2.78;100.00
10093;BME280;5085;48.092;11.484;2022-12-04T11:11:30;94550.44;;;2.77;100.00
10093;BME280;5085;48.092;11.484;2022-12-04T11:14:17;94552.03;;;2.78;100.00
10093;BME280;5085;48.092;11.484;2022-12-04T11:17:00;94560.00;;;2.78;100.00
10093;BME280;5085;48.092;11.484;2022-12-04T11:19:29;94568.78;;;2.79;100.00
10093;BME280;5085;48.092;11.484;2022-12-04T11:21:59;94575.97;;;2.78;100.00
10093;BME280;5085;48.092;11.484;2022-12-04T11:24:38;94586.34;;;2.80;100.00
10093;BME280;5085;48.092;11.484;2022-12-04T11:27:07;94568.31;;;2.82;100.00
10093;BME280;5085;48.092;11.484;2022-12-04T11:29:42;94564.06;;;2.81;100.00
10093;BME280;5085;48.092;11.484;2022-12-04T11:32:20;94563.47;;;2.79;100.00
10093;BME280;5085;48.092;11.484;2022-12-04T11:34:47;94578.03;;;2.76;100.00
10093;BME280;5085;48.092;11.484;2022-12-04T11:37:31;94566.84;;;2.74;100.00
10093;BME280;5085;48.092;11.484;2022-12-04T11:40:00;94560.75;;;2.73;100.00
10093;BME280;5085;48.092;11.484;2022-12-04T11:42:29;94547.19;;;2.75;100.00
10093;BME280;5085;48.092;11.484;2022-12-04T11:45:16;94548.00;;;2.75;100.00
10093;BME280;5085;48.092;11.484;2022-12-04T11:47:55;94545.13;;;2.77;100.00
10093;BME280;5085;48.092;11.484;2022-12-04T11:50:29;94546.72;;;2.78;100.00
10093;BME280;5085;48.092;11.484;2022-12-04T12:01:32;94533.91;;;2.75;100.00
10093;BME280;5085;48.092;11.484;2022-12-04T12:12:31;94524.00;;;2.87;100.00
10093;BME280;5085;48.092;11.484;2022-12-04T12:16:08;94512.31;;;2.88;100.00
10093;BME280;5085;48.092;11.484;2022-12-04T12:18:30;94519.66;;;2.81;100.00
10093;BME280;5085;48.092;11.484;2022-12-04T12:23:45;94513.03;;;2.84;100.00
10093;BME280;5085;48.092;11.484;2022-12-04T12:26:16;94505.97;;;2.89;100.00
10093;BME280;5085;48.092;11.484;2022-12-04T12:29:24;94507.56;;;3.24;100.00
10093;BME280;5085;48.092;11.484;2022-12-04T12:37:04;94506.03;;;3.11;100.00
10093;BME280;5085;48.092;11.484;2022-12-04T12:39:59;94515.28;;;3.09;100.00
10093;BME280;5085;48.092;11.484;2022-12-04T12:42:32;94526.13;;;3.02;100.00
10093;BME280;5085;48.092;11.484;2022-12-04T12:45:19;94513.78;;;2.96;100.00
10093;BME280;5085;48.092;11.484;2022-12-04T12:47:49;94499.41;;;2.97;100.00
10093;BME280;5085;48.092;11.484;2022-12-04T12:50:23;94492.81;;;2.99;100.00
10093;BME280;5085;48.092;11.484;2022-12-04T12:53:12;94501.13;;;3.03;100.00
10093;BME280;5085;48.092;11.484;2022-12-04T12:55:56;94496.13;;;3.07;100.00
10093;BME280;5085;48.092;11.484;2022-12-04T13:00:58;94488.50;;;2.93;100.00
10093;BME280;5085;48.092;11.484;2022-12-04T13:03:36;94485.84;;;2.93;100.00
10093;BME280;5085;48.092;11.484;2022-12-04T13:06:15;94482.44;;;2.98;100.00
10093;BME280;5085;48.092;11.484;2022-12-04T13:08:58;94486.44;;;3.00;100.00
10093;BME280;5085;48.092;11.484;2022-12-04T13:11:29;94473.72;;;3.03;100.00
10093;BME280;5085;48.092;11.484;2022-12-04T13:14:00;94463.09;;;3.03;100.00
10093;BME280;5085;48.092;11.484;2022-12-04T13:16:56;94479.84;;;3.03;100.00
10093;BME280;5085;48.092;11.484;2022-12-04T13:19:26;94488.56;;;2.98;100.00
10093;BME280;5085;48.092;11.484;2022-12-04T13:27:45;94489.69;;;2.86;100.00
10093;BME280;5085;48.092;11.484;2022-12-04T13:30:19;94498.72;;;2.85;100.00
10093;BME280;5085;48.092;11.484;2022-12-04T13:33:08;94503.22;;;2.84;100.00
10093;BME280;5085;48.092;11.484;2022-12-04T13:41:20;94495.50;;;2.83;100.00
10093;BME280;5085;48.092;11.484;2022-12-04T13:43:48;94495.75;;;2.81;100.00
10093;BME280;5085;48.092;11.484;2022-12-04T13:46:32;94490.31;;;2.76;100.00
10093;BME280;5085;48.092;11.484;2022-12-04T13:49:20;94500.94;;;2.76;100.00
10093;BME280;5085;48.092;11.484;2022-12-04T13:51:50;94489.03;;;2.79;100.00
10093;BME280;5085;48.092;11.484;2022-12-04T13:56:44;94499.69;;;2.79;100.00
10093;BME280;5085;48.092;11.484;2022-12-04T13:59:32;94487.19;;;2.79;100.00
10093;BME280;5085;48.092;11.484;2022-12-04T14:02:22;94485.09;;;2.81;100.00
10093;BME280;5085;48.092;11.484;2022-12-04T14:05:03;94475.03;;;2.83;100.00
10093;BME280;5085;48.092;11.484;2022-12-04T14:10:01;94481.00;;;2.73;100.00
10093;BME280;5085;48.092;11.484;2022-12-04T14:12:35;94471.09;;;2.69;100.00
10093;BME280;5085;48.092;11.484;2022-12-04T14:15:21;94476.63;;;2.67;100.00
10093;BME280;5085;48.092;11.484;2022-12-04T14:18:02;94508.53;;;2.67;100.00
10093;BME280;5085;48.092;11.484;2022-12-04T14:20:31;94502.72;;;2.70;100.00
10093;BME280;5085;48.092;11.484;2022-12-04T14:25:44;94516.91;;;2.76;100.00
10093;BME280;5085;48.092;11.484;2022-12-04T14:28:13;94515.88;;;2.77;100.00
10093;BME280;5085;48.092;11.484;2022-12-04T14:30:39;94513.22;;;2.77;100.00
10093;BME280;5085;48.092;11.484;2022-12-04T14:33:19;94509.75;;;2.77;100.00
10093;BME280;5085;48.092;11.484;2022-12-04T14:36:00;94503.59;;;2.76;100.00
10093;BME280;5085;48.092;11.484;2022-12-04T14:38:27;94502.59;;;2.77;100.00
10093;BME280;5085;48.092;11.484;2022-12-04T14:40:54;94500.47;;;2.79;100.00
10093;BME280;5085;48.092;11.484;2022-12-04T14:43:26;94493.56;;;2.78;100.00
10093;BME280;5085;48.092;11.484;2022-12-04T14:51:37;94489.69;;;2.69;100.00
10093;BME280;5085;48.092;11.484;2022-12-04T14:54:18;94485.19;;;2.69;100.00
10093;BME280;5085;48.092;11.484;2022-12-04T14:59:44;94500.66;;;2.72;100.00